Beechwood, Michigan
Current Conditions -  °F | °C
As of 4:15 PM on Sunday 25 Jan 2015 (Local Time) from KLNL Reporting Station
Overcast Overcast  
Wind Chill: 19°   Ceiling: 11000
Heat Index: 19°   Visibility: 10mi
Dew Point:   Wind: 0mph
Humidity: 56%   Direction: NA
Pressure: 29.99"   Gusts: NA
Location:  46.2163°N, 88.7676°W
Report Text: KLNL 252215Z AUTO 00000KT 10SM OVC110 M07/M15 A2999 RMK AO2 T10731148
Loading
Personal Weather Stations






























Interactive Weather Map New forecast layout! Learn more

10-Day Weather Forecast

Advertisements
Track Severe Weather on mobile